createdAt,value
2017-05-30T00:00:38.146Z,21.52
2017-05-30T00:01:38.850Z,21.51
2017-05-30T00:02:39.554Z,21.57
2017-05-30T00:03:40.462Z,21.51
2017-05-30T00:04:41.167Z,21.60
2017-05-30T00:05:41.868Z,21.64
2017-05-30T00:06:42.572Z,21.60
2017-05-30T00:07:43.279Z,21.69
2017-05-30T00:08:44.186Z,21.69
2017-05-30T00:09:44.889Z,21.69
2017-05-30T00:10:45.594Z,21.67
2017-05-30T00:11:46.296Z,21.60
2017-05-30T00:12:46.999Z,21.51
2017-05-30T00:13:47.904Z,21.57
2017-05-30T00:14:48.614Z,21.60
2017-05-30T00:15:49.317Z,21.61
2017-05-30T00:16:50.028Z,21.72
2017-05-30T00:17:50.732Z,21.64
2017-05-30T00:18:51.634Z,21.58
2017-05-30T00:19:52.339Z,21.70
2017-05-30T00:20:53.044Z,21.67
2017-05-30T00:21:53.745Z,21.66
2017-05-30T00:22:54.449Z,21.70
2017-05-30T00:23:55.353Z,21.75
2017-05-30T00:24:56.056Z,21.66
2017-05-30T00:25:56.757Z,21.73
2017-05-30T00:26:57.458Z,21.77
2017-05-30T00:27:58.159Z,21.72
2017-05-30T00:28:59.059Z,21.70
2017-05-30T00:29:59.760Z,21.75
2017-05-30T00:31:00.462Z,21.72
2017-05-30T00:32:01.164Z,21.82
2017-05-30T00:33:01.871Z,21.80
2017-05-30T00:34:02.772Z,21.77
2017-05-30T00:35:03.475Z,21.76
2017-05-30T00:36:04.176Z,21.73
2017-05-30T00:37:04.884Z,21.72
2017-05-30T00:38:05.587Z,21.73
2017-05-30T00:39:06.492Z,21.75
2017-05-30T00:40:07.194Z,21.73
2017-05-30T00:41:07.902Z,21.72
2017-05-30T00:42:08.610Z,21.77
2017-05-30T00:43:09.315Z,21.70
2017-05-30T00:44:10.218Z,21.69
2017-05-30T00:45:10.929Z,21.72
2017-05-30T00:46:11.632Z,21.73
2017-05-30T00:47:12.335Z,21.72
2017-05-30T00:48:13.038Z,21.66
2017-05-30T00:49:13.944Z,21.70
2017-05-30T00:50:14.654Z,21.73
2017-05-30T00:51:15.361Z,21.72
2017-05-30T00:52:16.063Z,21.73
2017-05-30T00:53:16.766Z,21.80
2017-05-30T00:54:17.669Z,21.77
2017-05-30T00:55:18.373Z,21.76
2017-05-30T00:56:19.079Z,21.72
2017-05-30T00:57:19.790Z,21.72
2017-05-30T00:58:20.495Z,21.76
2017-05-30T00:59:21.405Z,21.82
2017-05-30T01:00:22.110Z,21.80
2017-05-30T01:01:22.816Z,21.72
2017-05-30T01:02:23.528Z,21.76
2017-05-30T01:03:24.230Z,21.79
2017-05-30T01:04:25.133Z,21.80
2017-05-30T01:05:25.835Z,21.75
2017-05-30T01:06:26.540Z,21.85
2017-05-30T01:07:27.245Z,21.73
2017-05-30T01:08:27.951Z,21.73
2017-05-30T01:09:28.851Z,21.69
2017-05-30T01:10:29.557Z,21.75
2017-05-30T01:11:30.262Z,21.66
2017-05-30T01:12:30.968Z,21.64
2017-05-30T01:13:31.673Z,21.83
2017-05-30T01:14:32.577Z,21.64
2017-05-30T01:15:33.278Z,21.73
2017-05-30T01:16:33.990Z,21.72
2017-05-30T01:17:34.692Z,21.70
2017-05-30T01:18:35.399Z,21.67
2017-05-30T01:19:36.302Z,21.75
2017-05-30T01:20:37.005Z,21.75
2017-05-30T01:21:37.709Z,21.67
2017-05-30T01:22:38.412Z,21.80
2017-05-30T01:23:39.113Z,21.76
2017-05-30T01:24:40.019Z,21.72
2017-05-30T01:25:40.728Z,21.67
2017-05-30T01:26:41.429Z,21.67
2017-05-30T01:27:42.135Z,21.70
2017-05-30T01:28:42.839Z,21.69
2017-05-30T01:29:43.742Z,21.66
2017-05-30T01:30:44.447Z,21.60
2017-05-30T01:31:45.154Z,21.79
2017-05-30T01:32:45.859Z,21.66
2017-05-30T01:33:46.568Z,21.66
2017-05-30T01:34:47.469Z,21.64
2017-05-30T01:35:48.176Z,21.57
2017-05-30T01:36:48.881Z,21.52
2017-05-30T01:37:49.595Z,21.61
2017-05-30T01:38:50.297Z,21.70
2017-05-30T01:39:51.204Z,21.62
2017-05-30T01:40:51.910Z,21.52
2017-05-30T01:41:52.622Z,21.52
2017-05-30T01:42:53.326Z,21.54
2017-05-30T01:43:54.030Z,21.39
2017-05-30T01:44:54.834Z,21.46
2017-05-30T01:45:55.538Z,21.40
2017-05-30T01:46:56.241Z,21.48
2017-05-30T01:47:56.945Z,21.42
2017-05-30T01:48:57.647Z,21.46
2017-05-30T01:49:58.556Z,21.40
2017-05-30T01:50:59.260Z,21.46
2017-05-30T01:51:59.963Z,21.39
2017-05-30T01:53:00.673Z,21.45
2017-05-30T01:54:01.378Z,21.40
2017-05-30T01:55:02.286Z,21.40
2017-05-30T01:56:02.991Z,21.58
2017-05-30T01:57:03.694Z,21.54
2017-05-30T01:58:04.399Z,21.55
2017-05-30T01:59:05.102Z,21.55
2017-05-30T02:00:06.005Z,21.60
2017-05-30T02:01:06.709Z,21.66
2017-05-30T02:02:07.410Z,21.67
2017-05-30T02:03:08.112Z,21.62
2017-05-30T02:04:08.814Z,21.64
2017-05-30T02:05:09.718Z,21.70
2017-05-30T02:06:10.427Z,21.70
2017-05-30T02:07:11.131Z,21.67
2017-05-30T02:08:11.833Z,21.72
2017-05-30T02:09:12.534Z,21.69
2017-05-30T02:10:13.438Z,21.70
2017-05-30T02:11:14.146Z,21.69
2017-05-30T02:12:14.847Z,21.64
2017-05-30T02:13:15.549Z,21.69
2017-05-30T02:14:16.253Z,21.76
2017-05-30T02:15:17.161Z,21.73
2017-05-30T02:16:17.867Z,21.79
2017-05-30T02:17:18.565Z,21.79
2017-05-30T02:18:19.269Z,21.73
2017-05-30T02:19:19.972Z,21.70
2017-05-30T02:20:20.876Z,21.75
2017-05-30T02:21:21.580Z,21.72
2017-05-30T02:22:22.286Z,21.79
2017-05-30T02:23:22.992Z,21.76
2017-05-30T02:24:23.696Z,21.75
2017-05-30T02:25:24.650Z,21.79
2017-05-30T02:26:25.353Z,21.79
2017-05-30T02:27:26.055Z,21.70
2017-05-30T02:28:26.763Z,21.76
2017-05-30T02:29:27.469Z,21.82
2017-05-30T02:30:28.371Z,21.73
2017-05-30T02:31:29.072Z,21.75
2017-05-30T02:32:29.778Z,21.79
2017-05-30T02:33:30.486Z,21.72
2017-05-30T02:34:31.190Z,21.75
2017-05-30T02:35:32.094Z,21.80
2017-05-30T02:36:32.811Z,21.75
2017-05-30T02:37:33.513Z,21.77
2017-05-30T02:38:34.217Z,21.75
2017-05-30T02:39:34.921Z,21.92
2017-05-30T02:40:35.826Z,21.96
2017-05-30T02:41:36.530Z,22.02
2017-05-30T02:42:37.240Z,22.04
2017-05-30T02:43:37.944Z,22.10
2017-05-30T02:44:38.657Z,22.04
2017-05-30T02:45:39.612Z,22.08
2017-05-30T02:46:40.320Z,22.20
2017-05-30T02:47:41.025Z,22.15
2017-05-30T02:48:41.735Z,22.13
2017-05-30T02:49:42.438Z,22.15
2017-05-30T02:50:43.349Z,22.14
2017-05-30T02:51:44.054Z,22.17
2017-05-30T02:52:44.756Z,22.18
2017-05-30T02:53:45.462Z,22.23
2017-05-30T02:54:46.164Z,22.10
2017-05-30T02:55:47.069Z,22.15
2017-05-30T02:56:47.779Z,22.20
2017-05-30T02:57:48.482Z,22.13
2017-05-30T02:58:49.188Z,22.17
2017-05-30T02:59:49.893Z,22.20
2017-05-30T03:00:50.796Z,22.11
2017-05-30T03:01:51.502Z,22.07
2017-05-30T03:02:52.214Z,22.08
2017-05-30T03:03:52.920Z,22.11
2017-05-30T03:04:53.631Z,22.08
2017-05-30T03:05:54.537Z,22.13
2017-05-30T03:06:55.238Z,22.20
2017-05-30T03:07:55.946Z,22.15
2017-05-30T03:08:56.662Z,22.13
2017-05-30T03:09:57.367Z,22.08
2017-05-30T03:10:58.271Z,22.02
2017-05-30T03:11:58.980Z,22.02
2017-05-30T03:12:59.689Z,21.93
2017-05-30T03:14:00.393Z,21.93
2017-05-30T03:15:01.103Z,21.85
2017-05-30T03:16:02.011Z,21.98
2017-05-30T03:17:02.718Z,21.96
2017-05-30T03:18:03.428Z,21.99
2017-05-30T03:19:04.134Z,22.00
2017-05-30T03:20:04.841Z,21.99
2017-05-30T03:21:05.745Z,21.99
2017-05-30T03:22:06.448Z,21.99
2017-05-30T03:23:07.151Z,21.95
2017-05-30T03:24:07.854Z,21.99
2017-05-30T03:25:08.562Z,21.85
2017-05-30T03:26:09.474Z,21.87
2017-05-30T03:27:10.184Z,21.87
2017-05-30T03:28:10.891Z,21.80
2017-05-30T03:29:11.603Z,21.77
2017-05-30T03:30:12.312Z,21.80
2017-05-30T03:31:13.223Z,21.80
2017-05-30T03:32:13.950Z,21.79
2017-05-30T03:33:14.656Z,21.83
2017-05-30T03:34:15.360Z,21.91
2017-05-30T03:35:16.067Z,21.93
2017-05-30T03:36:16.973Z,21.95
2017-05-30T03:37:17.678Z,22.00
2017-05-30T03:38:18.388Z,21.91
2017-05-30T03:39:19.099Z,21.99
2017-05-30T03:40:19.810Z,21.91
2017-05-30T03:41:20.720Z,21.96
2017-05-30T03:42:21.428Z,21.89
2017-05-30T03:43:22.139Z,21.96
2017-05-30T03:44:22.849Z,21.87
2017-05-30T03:45:23.554Z,21.91
2017-05-30T03:46:24.463Z,21.91
2017-05-30T03:47:25.170Z,21.72
2017-05-30T03:48:25.878Z,21.85
2017-05-30T03:49:26.587Z,21.91
2017-05-30T03:50:27.291Z,21.95
2017-05-30T03:51:28.195Z,21.82
2017-05-30T03:52:28.903Z,21.87
2017-05-30T03:53:29.607Z,21.85
2017-05-30T03:54:30.317Z,21.89
2017-05-30T03:55:31.023Z,21.85
2017-05-30T03:56:31.931Z,21.76
2017-05-30T03:57:32.641Z,21.76
2017-05-30T03:58:33.351Z,21.82
2017-05-30T03:59:34.055Z,21.72
2017-05-30T04:00:34.762Z,21.66
2017-05-30T04:01:35.669Z,21.70
2017-05-30T04:02:36.376Z,21.66
2017-05-30T04:03:37.090Z,21.67
2017-05-30T04:04:37.800Z,21.76
2017-05-30T04:05:38.508Z,21.73
2017-05-30T04:06:39.463Z,21.67
2017-05-30T04:07:40.171Z,21.70
2017-05-30T04:08:40.874Z,21.80
2017-05-30T04:09:41.597Z,21.76
2017-05-30T04:10:42.300Z,21.76
2017-05-30T04:11:43.209Z,21.76
2017-05-30T04:12:43.918Z,21.80
2017-05-30T04:13:44.628Z,21.91
2017-05-30T04:14:45.335Z,21.95
2017-05-30T04:15:46.053Z,21.80
2017-05-30T04:16:46.968Z,21.80
2017-05-30T04:17:47.674Z,21.89
2017-05-30T04:18:48.382Z,22.00
2017-05-30T04:19:49.088Z,22.06
2017-05-30T04:20:49.796Z,22.11
2017-05-30T04:21:50.702Z,22.15
2017-05-30T04:22:51.411Z,22.20
2017-05-30T04:23:52.129Z,22.17
2017-05-30T04:24:52.843Z,22.15
2017-05-30T04:25:53.554Z,22.23
2017-05-30T04:26:54.461Z,22.28
2017-05-30T04:27:55.170Z,22.28
2017-05-30T04:28:55.881Z,22.30
2017-05-30T04:29:56.588Z,22.25
2017-05-30T04:30:57.293Z,22.11
2017-05-30T04:31:58.200Z,22.17
2017-05-30T04:32:58.907Z,22.14
2017-05-30T04:33:59.620Z,22.14
2017-05-30T04:35:00.332Z,22.13
2017-05-30T04:36:01.039Z,22.11
2017-05-30T04:37:01.949Z,22.08
2017-05-30T04:38:02.661Z,22.08
2017-05-30T04:39:03.370Z,22.08
2017-05-30T04:40:04.080Z,22.11
2017-05-30T04:41:04.786Z,22.20
2017-05-30T04:42:05.697Z,22.17
2017-05-30T04:43:06.408Z,22.13
2017-05-30T04:44:07.126Z,22.11
2017-05-30T04:45:07.833Z,22.22
2017-05-30T04:46:08.544Z,22.25
2017-05-30T04:47:09.449Z,22.15
2017-05-30T04:48:10.161Z,22.18
2017-05-30T04:49:10.877Z,22.13
2017-05-30T04:50:11.593Z,22.18
2017-05-30T04:51:12.301Z,22.22
2017-05-30T04:52:13.214Z,22.28
2017-05-30T04:53:13.920Z,22.25
2017-05-30T04:54:14.628Z,22.14
2017-05-30T04:55:15.334Z,22.11
2017-05-30T04:56:16.040Z,22.30
2017-05-30T04:57:16.947Z,22.25
2017-05-30T04:58:17.653Z,22.13
2017-05-30T04:59:18.366Z,22.10
2017-05-30T05:00:19.078Z,21.98
2017-05-30T05:01:19.783Z,21.87
2017-05-30T05:02:20.691Z,21.70
2017-05-30T05:03:21.397Z,21.75
2017-05-30T05:04:22.104Z,21.72
2017-05-30T05:05:22.813Z,21.72
2017-05-30T05:06:23.518Z,21.80
2017-05-30T05:07:24.426Z,21.70
2017-05-30T05:08:25.131Z,21.95
2017-05-30T05:09:25.837Z,21.93
2017-05-30T05:10:26.540Z,21.92
2017-05-30T05:11:27.248Z,21.98
2017-05-30T05:12:28.156Z,21.98
2017-05-30T05:13:28.865Z,22.02
2017-05-30T05:14:29.574Z,22.07
2017-05-30T05:15:30.280Z,22.13
2017-05-30T05:16:30.987Z,22.15
2017-05-30T05:17:31.897Z,22.07
2017-05-30T05:18:32.607Z,21.91
2017-05-30T05:19:33.316Z,21.98
2017-05-30T05:20:34.026Z,21.93
2017-05-30T05:21:34.737Z,21.98
2017-05-30T05:22:35.648Z,22.07
2017-05-30T05:23:36.361Z,22.08
2017-05-30T05:24:37.073Z,22.14
2017-05-30T05:25:37.786Z,22.32
2017-05-30T05:26:38.498Z,22.39
2017-05-30T05:27:39.408Z,22.44
2017-05-30T05:28:40.121Z,22.55
2017-05-30T05:29:40.836Z,22.59
2017-05-30T05:30:41.546Z,22.68
2017-05-30T05:31:42.264Z,22.76
2017-05-30T05:32:43.171Z,22.76
2017-05-30T05:33:43.884Z,22.84
2017-05-30T05:34:44.592Z,22.91
2017-05-30T05:35:45.312Z,22.99
2017-05-30T05:36:46.025Z,22.98
2017-05-30T05:37:46.939Z,22.99
2017-05-30T05:38:47.651Z,22.96
2017-05-30T05:39:48.370Z,22.96
2017-05-30T05:40:49.082Z,22.98
2017-05-30T05:41:49.795Z,23.03
2017-05-30T05:42:50.704Z,23.25
2017-05-30T05:43:51.410Z,23.34
2017-05-30T05:44:52.125Z,23.41
2017-05-30T05:45:52.841Z,23.58
2017-05-30T05:46:53.553Z,23.66
2017-05-30T05:47:54.464Z,23.62
2017-05-30T05:48:55.179Z,23.76
2017-05-30T05:49:55.889Z,23.86
2017-05-30T05:50:56.609Z,23.91
2017-05-30T05:51:57.327Z,23.99
2017-05-30T05:52:58.235Z,24.03
2017-05-30T05:53:58.947Z,24.08
2017-05-30T05:54:59.658Z,24.20
2017-05-30T05:56:00.369Z,24.23
2017-05-30T05:57:01.077Z,24.20
2017-05-30T05:58:01.987Z,24.21
2017-05-30T05:59:02.700Z,24.20
2017-05-30T06:00:03.410Z,24.24
2017-05-30T06:01:04.119Z,24.38
2017-05-30T06:02:04.832Z,24.35
2017-05-30T06:03:05.543Z,24.38
2017-05-30T06:04:06.256Z,24.45
2017-05-30T06:05:06.973Z,24.38
2017-05-30T06:06:07.687Z,24.36
2017-05-30T06:07:08.397Z,24.10
2017-05-30T06:08:09.307Z,24.06
2017-05-30T06:09:10.017Z,24.11
2017-05-30T06:10:10.726Z,24.10
2017-05-30T06:11:11.438Z,23.91
2017-05-30T06:12:12.152Z,23.83
2017-05-30T06:13:13.062Z,23.78
2017-05-30T06:14:13.774Z,23.96
2017-05-30T06:15:14.485Z,23.87
2017-05-30T06:16:15.192Z,23.76
2017-05-30T06:17:15.908Z,23.88
2017-05-30T06:18:16.821Z,23.83
2017-05-30T06:19:17.526Z,23.68
2017-05-30T06:20:18.234Z,23.80
2017-05-30T06:21:18.946Z,23.65
2017-05-30T06:22:19.659Z,23.73
2017-05-30T06:23:20.574Z,23.77
2017-05-30T06:24:21.297Z,23.77
2017-05-30T06:25:22.016Z,23.81
2017-05-30T06:26:22.726Z,23.81
2017-05-30T06:27:23.432Z,23.87
2017-05-30T06:28:24.347Z,23.91
2017-05-30T06:29:25.057Z,23.98
2017-05-30T06:30:25.775Z,24.01
2017-05-30T06:31:26.546Z,24.06
2017-05-30T06:32:27.256Z,23.95
2017-05-30T06:33:28.169Z,23.84
2017-05-30T06:34:28.890Z,23.80
2017-05-30T06:35:29.613Z,23.80
2017-05-30T06:36:30.325Z,23.84
2017-05-30T06:37:31.036Z,23.74
2017-05-30T06:38:31.942Z,23.81
2017-05-30T06:39:32.652Z,23.83
2017-05-30T06:40:33.361Z,23.74
2017-05-30T06:41:34.080Z,23.83
2017-05-30T06:42:34.789Z,23.81
2017-05-30T06:43:35.748Z,23.84
2017-05-30T06:44:36.459Z,23.92
2017-05-30T06:45:37.179Z,24.08
2017-05-30T06:46:37.893Z,24.21
2017-05-30T06:47:38.603Z,24.30
2017-05-30T06:48:39.516Z,24.50
2017-05-30T06:49:40.231Z,24.57
2017-05-30T06:50:40.940Z,24.65
2017-05-30T06:51:41.666Z,24.68
2017-05-30T06:52:42.382Z,24.68
2017-05-30T06:53:43.349Z,24.78
2017-05-30T06:54:44.068Z,24.81
2017-05-30T06:55:44.784Z,24.92
2017-05-30T06:56:45.494Z,24.91
2017-05-30T06:57:46.204Z,25.07
2017-05-30T06:58:47.114Z,25.22
2017-05-30T06:59:47.834Z,25.44
2017-05-30T07:00:48.549Z,25.54
2017-05-30T07:01:49.262Z,25.55
2017-05-30T07:02:49.970Z,25.62
2017-05-30T07:03:50.883Z,25.47
2017-05-30T07:04:51.590Z,25.44
2017-05-30T07:05:52.298Z,25.33
2017-05-30T07:06:53.009Z,25.23
2017-05-30T07:07:53.716Z,25.11
2017-05-30T07:08:54.625Z,25.08
2017-05-30T07:09:55.335Z,25.22
2017-05-30T07:10:56.048Z,25.33
2017-05-30T07:11:56.759Z,25.25
2017-05-30T07:12:57.469Z,25.08
2017-05-30T07:13:58.378Z,25.14
2017-05-30T07:14:59.094Z,25.03
2017-05-30T07:15:59.806Z,25.13
2017-05-30T07:17:00.519Z,25.17
2017-05-30T07:18:01.230Z,25.10
2017-05-30T07:19:02.142Z,25.08
2017-05-30T07:20:02.854Z,25.17
2017-05-30T07:21:03.564Z,25.28
2017-05-30T07:22:04.272Z,25.21
2017-05-30T07:23:04.982Z,25.21
2017-05-30T07:24:05.895Z,25.35
2017-05-30T07:25:06.607Z,25.41
2017-05-30T07:26:07.319Z,25.51
2017-05-30T07:27:08.029Z,25.53
2017-05-30T07:28:08.738Z,25.53
2017-05-30T07:29:09.649Z,25.54
2017-05-30T07:30:10.361Z,25.60
2017-05-30T07:31:11.075Z,25.54
2017-05-30T07:32:11.785Z,25.50
2017-05-30T07:33:12.493Z,25.54
2017-05-30T07:34:13.402Z,25.43
2017-05-30T07:35:14.115Z,25.23
2017-05-30T07:36:14.827Z,25.22
2017-05-30T07:37:15.537Z,25.35
2017-05-30T07:38:16.248Z,25.32
2017-05-30T07:39:17.158Z,25.43
2017-05-30T07:40:17.868Z,25.38
2017-05-30T07:41:18.576Z,25.25
2017-05-30T07:42:19.290Z,25.18
2017-05-30T07:43:20.001Z,25.08
2017-05-30T07:44:20.915Z,25.21
2017-05-30T07:45:21.630Z,25.21
2017-05-30T07:46:22.342Z,25.31
2017-05-30T07:47:23.059Z,25.40
2017-05-30T07:48:23.770Z,25.32
2017-05-30T07:49:24.682Z,25.32
2017-05-30T07:50:25.406Z,25.22
2017-05-30T07:51:26.119Z,25.35
2017-05-30T07:52:26.830Z,25.35
2017-05-30T07:53:27.538Z,25.38
2017-05-30T07:54:28.446Z,25.36
2017-05-30T07:55:29.157Z,25.35
2017-05-30T07:56:29.870Z,25.46
2017-05-30T07:57:30.580Z,25.40
2017-05-30T07:58:31.287Z,25.36
2017-05-30T07:59:32.211Z,25.44
2017-05-30T08:00:32.920Z,25.47
2017-05-30T08:01:33.631Z,25.46
2017-05-30T08:02:34.354Z,25.55
2017-05-30T08:03:35.062Z,25.65
2017-05-30T08:04:35.973Z,25.69
2017-05-30T08:05:36.680Z,25.99
2017-05-30T08:06:37.388Z,26.16
2017-05-30T08:07:38.100Z,26.37
2017-05-30T08:08:38.812Z,26.55
2017-05-30T08:09:39.724Z,26.81
2017-05-30T08:10:40.438Z,26.74
2017-05-30T08:11:41.157Z,26.80
2017-05-30T08:12:41.864Z,26.84
2017-05-30T08:13:42.578Z,26.75
2017-05-30T08:14:43.492Z,26.66
2017-05-30T08:15:44.208Z,26.77
2017-05-30T08:16:44.918Z,26.92
2017-05-30T08:17:45.631Z,26.97
2017-05-30T08:18:46.340Z,27.07
2017-05-30T08:19:47.255Z,27.05
2017-05-30T08:20:47.971Z,26.96
2017-05-30T08:21:48.687Z,26.99
2017-05-30T08:22:49.398Z,26.74
2017-05-30T08:23:50.110Z,26.63
2017-05-30T08:24:51.023Z,26.58
2017-05-30T08:25:51.733Z,26.31
2017-05-30T08:26:52.445Z,26.21
2017-05-30T08:27:53.165Z,26.22
2017-05-30T08:28:53.879Z,26.31
2017-05-30T08:29:54.792Z,26.33
2017-05-30T08:30:55.512Z,26.29
2017-05-30T08:31:56.224Z,26.28
2017-05-30T08:32:56.938Z,26.53
2017-05-30T08:33:57.651Z,26.77
2017-05-30T08:34:58.566Z,26.84
2017-05-30T08:35:59.277Z,27.03
2017-05-30T08:36:59.988Z,27.10
2017-05-30T08:38:00.696Z,26.97
2017-05-30T08:39:01.407Z,26.80
2017-05-30T08:40:02.318Z,26.58
2017-05-30T08:41:03.035Z,26.60
2017-05-30T08:42:03.744Z,26.60
2017-05-30T08:43:04.454Z,26.48
2017-05-30T08:44:05.165Z,26.45
2017-05-30T08:45:06.078Z,26.29
2017-05-30T08:46:06.790Z,26.22
2017-05-30T08:47:07.505Z,26.07
2017-05-30T08:48:08.217Z,26.09
2017-05-30T08:49:08.931Z,26.21
2017-05-30T08:50:09.841Z,26.22
2017-05-30T08:51:10.548Z,26.29
2017-05-30T08:52:11.263Z,26.47
2017-05-30T08:53:11.972Z,26.59
2017-05-30T08:54:12.688Z,26.58
2017-05-30T08:55:13.907Z,26.55
2017-05-30T08:56:14.617Z,26.60
2017-05-30T08:57:15.330Z,26.55
2017-05-30T08:58:16.040Z,26.40
2017-05-30T08:59:16.765Z,26.29
2017-05-30T09:00:17.677Z,26.33
2017-05-30T09:01:18.388Z,26.41
2017-05-30T09:02:19.100Z,26.33
2017-05-30T09:03:19.812Z,26.58
2017-05-30T09:04:20.521Z,26.74
2017-05-30T09:05:21.431Z,26.90
2017-05-30T09:06:22.141Z,26.90
2017-05-30T09:07:22.850Z,26.93
2017-05-30T09:08:23.560Z,26.96
2017-05-30T09:09:24.273Z,27.17
2017-05-30T09:10:25.185Z,27.02
2017-05-30T09:11:25.896Z,26.80
2017-05-30T09:12:26.608Z,26.56
2017-05-30T09:13:27.328Z,26.56
2017-05-30T09:14:28.040Z,26.83
2017-05-30T09:15:28.954Z,26.92
2017-05-30T09:16:29.665Z,26.93
2017-05-30T09:17:30.377Z,27.17
2017-05-30T09:18:31.089Z,27.33
2017-05-30T09:19:31.800Z,27.45
2017-05-30T09:20:32.716Z,27.48
2017-05-30T09:21:33.428Z,27.49
2017-05-30T09:22:34.140Z,27.44
2017-05-30T09:23:34.856Z,27.49
2017-05-30T09:24:35.570Z,27.30
2017-05-30T09:25:36.483Z,27.10
2017-05-30T09:26:37.196Z,26.95
2017-05-30T09:27:37.908Z,26.80
2017-05-30T09:28:38.618Z,26.68
2017-05-30T09:29:39.342Z,26.73
2017-05-30T09:30:40.253Z,26.66
2017-05-30T09:31:40.967Z,26.68
2017-05-30T09:32:41.676Z,26.66
2017-05-30T09:33:42.386Z,26.78
2017-05-30T09:34:43.100Z,26.81
2017-05-30T09:35:44.013Z,26.88
2017-05-30T09:36:44.726Z,26.89
2017-05-30T09:37:45.434Z,26.89
2017-05-30T09:38:46.146Z,26.85
2017-05-30T09:39:46.859Z,26.83
2017-05-30T09:40:47.773Z,26.96
2017-05-30T09:41:48.484Z,26.97
2017-05-30T09:42:49.194Z,27.29
2017-05-30T09:43:49.905Z,27.17
2017-05-30T09:44:50.615Z,27.20
2017-05-30T09:45:51.681Z,27.33
2017-05-30T09:46:52.394Z,27.49
2017-05-30T09:47:53.118Z,27.29
2017-05-30T09:48:53.829Z,27.40
2017-05-30T09:49:54.541Z,27.30
2017-05-30T09:50:55.452Z,26.95
2017-05-30T09:51:56.162Z,26.85
2017-05-30T09:52:56.872Z,26.95
2017-05-30T09:53:57.583Z,27.10
2017-05-30T09:54:58.297Z,27.29
2017-05-30T09:55:59.213Z,27.45
2017-05-30T09:56:59.922Z,27.44
2017-05-30T09:58:00.635Z,27.35
2017-05-30T09:59:01.341Z,27.45
2017-05-30T10:00:02.052Z,27.60
2017-05-30T10:01:02.967Z,27.67
2017-05-30T10:02:03.679Z,27.89
2017-05-30T10:03:04.397Z,27.82
2017-05-30T10:04:05.114Z,27.90
2017-05-30T10:05:05.833Z,28.01
2017-05-30T10:06:06.751Z,28.02
2017-05-30T10:07:07.462Z,28.08
2017-05-30T10:08:08.174Z,27.96
2017-05-30T10:09:08.885Z,27.98
2017-05-30T10:10:09.596Z,27.89
2017-05-30T10:11:10.566Z,27.82
2017-05-30T10:12:11.281Z,27.86
2017-05-30T10:13:11.991Z,28.05
2017-05-30T10:14:12.699Z,27.90
2017-05-30T10:15:13.413Z,28.07
2017-05-30T10:16:14.329Z,28.20
2017-05-30T10:17:15.040Z,28.00
2017-05-30T10:18:15.750Z,27.90
2017-05-30T10:19:16.462Z,28.00
2017-05-30T10:20:17.173Z,28.27
2017-05-30T10:21:18.136Z,28.30
2017-05-30T10:22:18.845Z,28.35
2017-05-30T10:23:19.558Z,28.30
2017-05-30T10:24:20.268Z,28.32
2017-05-30T10:25:20.981Z,28.54
2017-05-30T10:26:21.892Z,28.63
2017-05-30T10:27:22.612Z,28.57
2017-05-30T10:28:23.322Z,28.59
2017-05-30T10:29:24.038Z,28.64
2017-05-30T10:30:24.750Z,28.45
2017-05-30T10:31:25.722Z,28.20
2017-05-30T10:32:26.434Z,28.27
2017-05-30T10:33:27.144Z,28.37
2017-05-30T10:34:27.857Z,28.67
2017-05-30T10:35:28.568Z,28.91
2017-05-30T10:36:29.482Z,29.12
2017-05-30T10:37:30.193Z,29.22
2017-05-30T10:38:30.912Z,29.38
2017-05-30T10:39:31.628Z,29.53
2017-05-30T10:40:32.339Z,29.54
2017-05-30T10:41:33.258Z,29.08
2017-05-30T10:42:33.971Z,28.82
2017-05-30T10:43:34.691Z,28.81
2017-05-30T10:44:35.404Z,28.76
2017-05-30T10:45:36.116Z,28.93
2017-05-30T10:46:37.084Z,29.17
2017-05-30T10:47:37.794Z,29.38
2017-05-30T10:48:38.506Z,29.22
2017-05-30T10:49:39.215Z,29.20
2017-05-30T10:50:39.927Z,29.02
2017-05-30T10:51:40.845Z,28.94
2017-05-30T10:52:41.560Z,28.81
2017-05-30T10:53:42.275Z,28.85
2017-05-30T10:54:42.987Z,29.04
2017-05-30T10:55:43.701Z,29.14
2017-05-30T10:56:44.970Z,29.17
2017-05-30T10:57:45.689Z,29.24
2017-05-30T10:58:46.400Z,29.38
2017-05-30T10:59:47.113Z,29.56
2017-05-30T11:00:47.824Z,29.51
2017-05-30T11:01:48.736Z,29.49
2017-05-30T11:02:49.445Z,29.54
2017-05-30T11:03:50.162Z,29.66
2017-05-30T11:04:50.871Z,29.73
2017-05-30T11:05:51.585Z,29.57
2017-05-30T11:06:52.498Z,29.60
2017-05-30T11:07:53.213Z,29.39
2017-05-30T11:08:53.926Z,29.49
2017-05-30T11:09:54.636Z,29.39
2017-05-30T11:10:55.350Z,29.53
2017-05-30T11:11:56.259Z,29.79
2017-05-30T11:12:56.978Z,29.79
2017-05-30T11:13:57.689Z,29.82
2017-05-30T11:14:58.401Z,29.87
2017-05-30T11:15:59.114Z,29.84
2017-05-30T11:17:00.025Z,29.79
2017-05-30T11:18:00.738Z,29.57
2017-05-30T11:19:01.452Z,29.59
2017-05-30T11:20:02.230Z,29.78
2017-05-30T11:21:02.949Z,29.76
2017-05-30T11:22:03.872Z,29.88
2017-05-30T11:23:04.586Z,29.87
2017-05-30T11:24:05.298Z,29.87
2017-05-30T11:25:06.020Z,30.00
2017-05-30T11:26:06.731Z,30.21
2017-05-30T11:27:07.640Z,30.35
2017-05-30T11:28:08.357Z,30.62
2017-05-30T11:29:09.069Z,30.66
2017-05-30T11:30:09.781Z,30.53
2017-05-30T11:31:10.489Z,30.44
2017-05-30T11:32:11.455Z,30.59
2017-05-30T11:33:12.168Z,30.72
2017-05-30T11:34:12.879Z,30.73
2017-05-30T11:35:13.593Z,30.96
2017-05-30T11:36:14.305Z,31.02
2017-05-30T11:37:15.223Z,31.00
2017-05-30T11:38:15.935Z,31.10
2017-05-30T11:39:16.649Z,31.44
2017-05-30T11:40:17.362Z,32.07
2017-05-30T11:41:18.080Z,32.77
2017-05-30T11:42:19.043Z,33.74
2017-05-30T11:43:19.756Z,34.45
2017-05-30T11:44:20.471Z,34.97
2017-05-30T11:45:21.194Z,35.36
2017-05-30T11:46:21.907Z,35.67
2017-05-30T11:47:22.821Z,35.70
2017-05-30T11:48:23.537Z,35.90
2017-05-30T11:49:24.257Z,35.78
2017-05-30T11:50:24.972Z,35.44
2017-05-30T11:51:25.688Z,35.17
2017-05-30T11:52:26.607Z,35.74
2017-05-30T11:53:27.326Z,36.17
2017-05-30T11:54:28.045Z,36.59
2017-05-30T11:55:28.761Z,36.95
2017-05-30T11:56:29.485Z,37.36
2017-05-30T11:57:30.402Z,36.52
2017-05-30T11:58:31.124Z,36.46
2017-05-30T11:59:31.845Z,36.46
2017-05-30T12:00:32.565Z,36.36
2017-05-30T12:01:33.285Z,35.89
2017-05-30T12:02:34.203Z,35.70
2017-05-30T12:03:34.923Z,36.47
2017-05-30T12:04:35.646Z,37.06
2017-05-30T12:05:36.365Z,37.44
2017-05-30T12:06:37.087Z,37.44
2017-05-30T12:07:38.009Z,37.60
2017-05-30T12:08:38.727Z,37.10
2017-05-30T12:09:39.444Z,37.37
2017-05-30T12:10:40.166Z,37.40
2017-05-30T12:11:40.888Z,37.60
2017-05-30T12:12:41.808Z,38.21
2017-05-30T12:13:42.534Z,38.36
2017-05-30T12:14:43.256Z,38.91
2017-05-30T12:15:43.978Z,39.74
2017-05-30T12:16:44.699Z,39.87
2017-05-30T12:17:45.619Z,39.63
2017-05-30T12:18:46.339Z,38.96
2017-05-30T12:19:47.062Z,38.96
2017-05-30T12:20:47.781Z,39.09
2017-05-30T12:21:48.499Z,39.48
2017-05-30T12:22:49.420Z,39.51
2017-05-30T12:23:50.143Z,39.44
2017-05-30T12:24:50.872Z,38.67
2017-05-30T12:25:51.593Z,38.55
2017-05-30T12:26:52.314Z,38.64
2017-05-30T12:27:53.246Z,38.57
2017-05-30T12:28:53.973Z,38.68
2017-05-30T12:29:54.695Z,38.71
2017-05-30T12:30:55.426Z,38.83
2017-05-30T12:31:56.144Z,39.38
2017-05-30T12:32:57.065Z,39.58
2017-05-30T12:33:57.791Z,40.18
2017-05-30T12:34:58.511Z,40.73
2017-05-30T12:35:59.230Z,41.40
2017-05-30T12:36:59.954Z,41.12
2017-05-30T12:38:00.925Z,41.19
2017-05-30T12:39:01.649Z,40.88
2017-05-30T12:40:02.372Z,40.92
2017-05-30T12:41:03.100Z,41.26
2017-05-30T12:42:03.821Z,40.59
2017-05-30T12:43:04.744Z,41.31
2017-05-30T12:44:05.468Z,41.55
2017-05-30T12:45:06.193Z,41.02
2017-05-30T12:46:06.916Z,41.26
2017-05-30T12:47:07.636Z,41.94
2017-05-30T12:48:08.557Z,42.14
2017-05-30T12:49:09.279Z,41.75
2017-05-30T12:50:10.001Z,42.16
2017-05-30T12:51:10.723Z,42.65
2017-05-30T12:52:11.450Z,42.89
2017-05-30T12:53:12.372Z,43.48
2017-05-30T12:54:13.093Z,43.83
2017-05-30T12:55:13.818Z,43.95
2017-05-30T12:56:14.542Z,44.06
2017-05-30T12:57:15.274Z,43.04
2017-05-30T12:58:16.252Z,43.41
2017-05-30T12:59:16.972Z,43.98
2017-05-30T13:00:17.694Z,44.26
2017-05-30T13:01:18.417Z,44.76
2017-05-30T13:02:19.141Z,45.03